sensor_id;sensor_type;location;lat;lon;timestamp;P1;durP1;ratioP1;P2;durP2;ratioP2
52414;SDS011;38340;52.964;6.086;2023-06-24T00:01:55;12.07;;;10.30;;
52414;SDS011;38340;52.964;6.086;2023-06-24T00:04:21;16.13;;;10.40;;
52414;SDS011;38340;52.964;6.086;2023-06-24T00:06:48;13.75;;;9.60;;
52414;SDS011;38340;52.964;6.086;2023-06-24T00:09:13;12.32;;;9.32;;
52414;SDS011;38340;52.964;6.086;2023-06-24T00:11:39;13.50;;;9.50;;
52414;SDS011;38340;52.964;6.086;2023-06-24T00:14:05;11.05;;;9.80;;
52414;SDS011;38340;52.964;6.086;2023-06-24T00:16:32;11.52;;;9.48;;
52414;SDS011;38340;52.964;6.086;2023-06-24T00:18:57;12.82;;;9.68;;
52414;SDS011;38340;52.964;6.086;2023-06-24T00:21:24;10.48;;;8.85;;
52414;SDS011;38340;52.964;6.086;2023-06-24T00:23:55;12.30;;;9.68;;
52414;SDS011;38340;52.964;6.086;2023-06-24T00:28:55;13.20;;;9.55;;
52414;SDS011;38340;52.964;6.086;2023-06-24T00:31:21;12.40;;;8.80;;
52414;SDS011;38340;52.964;6.086;2023-06-24T00:33:48;11.15;;;9.30;;
52414;SDS011;38340;52.964;6.086;2023-06-24T00:36:14;14.00;;;9.50;;
52414;SDS011;38340;52.964;6.086;2023-06-24T00:38:40;13.77;;;10.68;;
52414;SDS011;38340;52.964;6.086;2023-06-24T00:41:06;13.13;;;9.65;;
52414;SDS011;38340;52.964;6.086;2023-06-24T00:43:32;11.50;;;9.82;;
52414;SDS011;38340;52.964;6.086;2023-06-24T00:45:58;12.25;;;9.35;;
52414;SDS011;38340;52.964;6.086;2023-06-24T00:48:25;12.50;;;10.50;;
52414;SDS011;38340;52.964;6.086;2023-06-24T00:50:50;10.80;;;8.82;;
52414;SDS011;38340;52.964;6.086;2023-06-24T00:53:17;14.10;;;10.05;;
52414;SDS011;38340;52.964;6.086;2023-06-24T00:55:46;11.63;;;8.63;;
52414;SDS011;38340;52.964;6.086;2023-06-24T00:58:13;10.70;;;9.18;;
52414;SDS011;38340;52.964;6.086;2023-06-24T01:00:42;11.40;;;9.60;;
52414;SDS011;38340;52.964;6.086;2023-06-24T01:03:11;13.05;;;9.57;;
52414;SDS011;38340;52.964;6.086;2023-06-24T01:05:40;13.88;;;10.73;;
52414;SDS011;38340;52.964;6.086;2023-06-24T01:08:07;11.93;;;10.35;;
52414;SDS011;38340;52.964;6.086;2023-06-24T01:10:32;13.63;;;9.70;;
52414;SDS011;38340;52.964;6.086;2023-06-24T01:12:58;14.00;;;10.30;;
52414;SDS011;38340;52.964;6.086;2023-06-24T01:15:24;12.48;;;10.02;;
52414;SDS011;38340;52.964;6.086;2023-06-24T01:29:09;13.20;;;9.80;;
52414;SDS011;38340;52.964;6.086;2023-06-24T01:31:44;12.85;;;10.43;;
52414;SDS011;38340;52.964;6.086;2023-06-24T01:36:43;14.18;;;10.65;;
52414;SDS011;38340;52.964;6.086;2023-06-24T01:39:14;16.05;;;10.52;;
52414;SDS011;38340;52.964;6.086;2023-06-24T01:41:44;12.93;;;10.60;;
52414;SDS011;38340;52.964;6.086;2023-06-24T01:44:15;17.67;;;11.48;;
52414;SDS011;38340;52.964;6.086;2023-06-24T01:46:41;16.83;;;10.20;;
52414;SDS011;38340;52.964;6.086;2023-06-24T01:49:11;12.18;;;9.50;;
52414;SDS011;38340;52.964;6.086;2023-06-24T01:51:39;11.07;;;9.85;;
52414;SDS011;38340;52.964;6.086;2023-06-24T01:54:10;13.65;;;10.95;;
52414;SDS011;38340;52.964;6.086;2023-06-24T01:56:40;13.27;;;10.65;;
52414;SDS011;38340;52.964;6.086;2023-06-24T01:59:08;15.15;;;11.65;;
52414;SDS011;38340;52.964;6.086;2023-06-24T02:01:36;15.93;;;11.82;;
52414;SDS011;38340;52.964;6.086;2023-06-24T02:04:04;14.85;;;11.15;;
52414;SDS011;38340;52.964;6.086;2023-06-24T02:06:33;13.48;;;11.02;;
52414;SDS011;38340;52.964;6.086;2023-06-24T02:09:02;12.07;;;10.60;;
52414;SDS011;38340;52.964;6.086;2023-06-24T02:11:29;12.90;;;11.25;;
52414;SDS011;38340;52.964;6.086;2023-06-24T02:13:56;13.65;;;11.02;;
52414;SDS011;38340;52.964;6.086;2023-06-24T02:16:24;16.10;;;10.40;;
52414;SDS011;38340;52.964;6.086;2023-06-24T02:18:51;14.15;;;10.18;;
52414;SDS011;38340;52.964;6.086;2023-06-24T02:21:18;14.20;;;10.80;;
52414;SDS011;38340;52.964;6.086;2023-06-24T02:23:48;12.77;;;10.38;;
52414;SDS011;38340;52.964;6.086;2023-06-24T02:26:14;12.10;;;10.45;;
52414;SDS011;38340;52.964;6.086;2023-06-24T02:28:41;13.50;;;10.82;;
52414;SDS011;38340;52.964;6.086;2023-06-24T02:31:09;14.38;;;11.20;;
52414;SDS011;38340;52.964;6.086;2023-06-24T02:33:37;15.63;;;12.05;;
52414;SDS011;38340;52.964;6.086;2023-06-24T02:36:03;13.63;;;11.32;;
52414;SDS011;38340;52.964;6.086;2023-06-24T02:38:29;13.38;;;11.00;;
52414;SDS011;38340;52.964;6.086;2023-06-24T02:40:54;14.98;;;10.80;;
52414;SDS011;38340;52.964;6.086;2023-06-24T02:43:21;14.45;;;10.75;;
52414;SDS011;38340;52.964;6.086;2023-06-24T02:45:47;17.35;;;11.05;;
52414;SDS011;38340;52.964;6.086;2023-06-24T02:48:14;12.18;;;10.88;;
52414;SDS011;38340;52.964;6.086;2023-06-24T02:50:41;13.32;;;10.45;;
52414;SDS011;38340;52.964;6.086;2023-06-24T02:53:10;12.88;;;10.52;;
52414;SDS011;38340;52.964;6.086;2023-06-24T02:55:37;13.90;;;11.10;;
52414;SDS011;38340;52.964;6.086;2023-06-24T02:58:04;14.68;;;11.15;;
52414;SDS011;38340;52.964;6.086;2023-06-24T03:00:33;19.77;;;11.13;;
52414;SDS011;38340;52.964;6.086;2023-06-24T03:03:03;11.20;;;9.77;;
52414;SDS011;38340;52.964;6.086;2023-06-24T03:05:30;12.15;;;10.40;;
52414;SDS011;38340;52.964;6.086;2023-06-24T03:08:00;15.65;;;10.50;;
52414;SDS011;38340;52.964;6.086;2023-06-24T03:10:28;15.25;;;10.43;;
52414;SDS011;38340;52.964;6.086;2023-06-24T03:12:54;12.27;;;10.15;;
52414;SDS011;38340;52.964;6.086;2023-06-24T03:15:20;15.50;;;11.25;;
52414;SDS011;38340;52.964;6.086;2023-06-24T03:17:46;13.68;;;11.32;;
52414;SDS011;38340;52.964;6.086;2023-06-24T03:20:12;17.10;;;11.77;;
52414;SDS011;38340;52.964;6.086;2023-06-24T03:22:38;12.88;;;10.73;;
52414;SDS011;38340;52.964;6.086;2023-06-24T03:25:03;13.15;;;10.93;;
52414;SDS011;38340;52.964;6.086;2023-06-24T03:27:29;13.75;;;10.60;;
52414;SDS011;38340;52.964;6.086;2023-06-24T03:29:56;14.90;;;10.95;;
52414;SDS011;38340;52.964;6.086;2023-06-24T03:32:22;13.93;;;11.15;;
52414;SDS011;38340;52.964;6.086;2023-06-24T03:34:48;12.93;;;10.73;;
52414;SDS011;38340;52.964;6.086;2023-06-24T03:37:13;15.90;;;11.63;;
52414;SDS011;38340;52.964;6.086;2023-06-24T03:39:39;17.42;;;11.63;;
52414;SDS011;38340;52.964;6.086;2023-06-24T03:42:05;14.20;;;11.82;;
52414;SDS011;38340;52.964;6.086;2023-06-24T03:44:30;14.63;;;11.98;;
52414;SDS011;38340;52.964;6.086;2023-06-24T03:46:56;13.50;;;11.15;;
52414;SDS011;38340;52.964;6.086;2023-06-24T03:49:22;16.60;;;11.93;;
52414;SDS011;38340;52.964;6.086;2023-06-24T03:51:47;15.77;;;11.77;;
52414;SDS011;38340;52.964;6.086;2023-06-24T03:54:13;15.80;;;11.80;;
52414;SDS011;38340;52.964;6.086;2023-06-24T03:56:39;15.13;;;11.15;;
52414;SDS011;38340;52.964;6.086;2023-06-24T03:59:05;15.15;;;11.15;;
52414;SDS011;38340;52.964;6.086;2023-06-24T04:01:30;13.35;;;10.77;;
52414;SDS011;38340;52.964;6.086;2023-06-24T04:03:59;14.15;;;11.77;;
52414;SDS011;38340;52.964;6.086;2023-06-24T04:06:25;14.25;;;11.20;;
52414;SDS011;38340;52.964;6.086;2023-06-24T04:08:51;15.80;;;11.65;;
52414;SDS011;38340;52.964;6.086;2023-06-24T04:11:17;17.08;;;11.88;;
52414;SDS011;38340;52.964;6.086;2023-06-24T04:13:44;13.98;;;11.45;;
52414;SDS011;38340;52.964;6.086;2023-06-24T04:16:10;11.70;;;10.40;;
52414;SDS011;38340;52.964;6.086;2023-06-24T04:18:36;14.40;;;11.80;;
52414;SDS011;38340;52.964;6.086;2023-06-24T04:21:04;14.82;;;11.70;;
52414;SDS011;38340;52.964;6.086;2023-06-24T04:23:34;16.55;;;12.75;;
52414;SDS011;38340;52.964;6.086;2023-06-24T04:25:59;17.80;;;12.18;;
52414;SDS011;38340;52.964;6.086;2023-06-24T04:28:25;14.50;;;12.38;;
52414;SDS011;38340;52.964;6.086;2023-06-24T04:30:51;13.93;;;12.10;;
52414;SDS011;38340;52.964;6.086;2023-06-24T04:33:17;14.10;;;11.73;;
52414;SDS011;38340;52.964;6.086;2023-06-24T04:35:43;18.05;;;12.82;;
52414;SDS011;38340;52.964;6.086;2023-06-24T04:38:09;15.30;;;11.93;;
52414;SDS011;38340;52.964;6.086;2023-06-24T04:40:35;14.40;;;12.35;;
52414;SDS011;38340;52.964;6.086;2023-06-24T04:43:01;17.20;;;12.13;;
52414;SDS011;38340;52.964;6.086;2023-06-24T04:45:27;15.52;;;11.82;;
52414;SDS011;38340;52.964;6.086;2023-06-24T04:47:52;14.48;;;11.85;;
52414;SDS011;38340;52.964;6.086;2023-06-24T04:50:18;13.93;;;11.85;;
52414;SDS011;38340;52.964;6.086;2023-06-24T04:52:44;17.23;;;11.82;;
52414;SDS011;38340;52.964;6.086;2023-06-24T04:55:09;14.38;;;12.00;;
52414;SDS011;38340;52.964;6.086;2023-06-24T04:57:35;16.35;;;12.57;;
52414;SDS011;38340;52.964;6.086;2023-06-24T05:00:01;16.05;;;12.65;;
52414;SDS011;38340;52.964;6.086;2023-06-24T05:02:27;15.90;;;12.27;;
52414;SDS011;38340;52.964;6.086;2023-06-24T05:04:53;14.35;;;12.80;;
52414;SDS011;38340;52.964;6.086;2023-06-24T05:07:19;14.80;;;12.38;;
52414;SDS011;38340;52.964;6.086;2023-06-24T05:09:46;16.48;;;11.85;;
52414;SDS011;38340;52.964;6.086;2023-06-24T05:12:13;16.33;;;12.30;;
52414;SDS011;38340;52.964;6.086;2023-06-24T05:14:39;13.43;;;11.35;;
52414;SDS011;38340;52.964;6.086;2023-06-24T05:17:04;13.77;;;12.23;;
52414;SDS011;38340;52.964;6.086;2023-06-24T05:19:30;16.67;;;13.05;;
52414;SDS011;38340;52.964;6.086;2023-06-24T05:21:56;13.75;;;12.02;;
52414;SDS011;38340;52.964;6.086;2023-06-24T05:24:22;17.02;;;11.80;;
52414;SDS011;38340;52.964;6.086;2023-06-24T05:26:48;14.63;;;11.77;;
52414;SDS011;38340;52.964;6.086;2023-06-24T05:29:15;14.50;;;12.18;;
52414;SDS011;38340;52.964;6.086;2023-06-24T05:31:41;18.35;;;12.65;;
52414;SDS011;38340;52.964;6.086;2023-06-24T05:34:07;15.73;;;13.02;;
52414;SDS011;38340;52.964;6.086;2023-06-24T05:36:33;16.65;;;12.98;;
52414;SDS011;38340;52.964;6.086;2023-06-24T05:38:59;17.65;;;13.50;;
52414;SDS011;38340;52.964;6.086;2023-06-24T05:41:25;17.85;;;13.25;;
52414;SDS011;38340;52.964;6.086;2023-06-24T05:44:00;15.38;;;12.75;;
52414;SDS011;38340;52.964;6.086;2023-06-24T05:46:30;14.98;;;13.38;;
52414;SDS011;38340;52.964;6.086;2023-06-24T05:48:56;14.25;;;12.48;;
52414;SDS011;38340;52.964;6.086;2023-06-24T05:51:22;15.10;;;13.55;;
52414;SDS011;38340;52.964;6.086;2023-06-24T05:53:47;17.55;;;13.23;;
52414;SDS011;38340;52.964;6.086;2023-06-24T05:56:13;15.63;;;13.73;;
52414;SDS011;38340;52.964;6.086;2023-06-24T05:58:39;14.43;;;12.80;;
52414;SDS011;38340;52.964;6.086;2023-06-24T06:01:06;17.75;;;13.57;;
52414;SDS011;38340;52.964;6.086;2023-06-24T06:03:32;16.05;;;12.68;;
52414;SDS011;38340;52.964;6.086;2023-06-24T06:05:58;15.60;;;13.88;;
52414;SDS011;38340;52.964;6.086;2023-06-24T06:08:23;14.45;;;12.95;;
52414;SDS011;38340;52.964;6.086;2023-06-24T06:10:49;16.88;;;13.57;;
52414;SDS011;38340;52.964;6.086;2023-06-24T06:13:15;14.50;;;13.00;;
52414;SDS011;38340;52.964;6.086;2023-06-24T06:15:40;17.50;;;13.75;;
52414;SDS011;38340;52.964;6.086;2023-06-24T06:18:06;15.23;;;12.20;;
52414;SDS011;38340;52.964;6.086;2023-06-24T06:20:31;15.00;;;12.50;;
52414;SDS011;38340;52.964;6.086;2023-06-24T06:22:57;18.55;;;13.90;;
52414;SDS011;38340;52.964;6.086;2023-06-24T06:25:23;15.52;;;12.65;;
52414;SDS011;38340;52.964;6.086;2023-06-24T06:27:49;16.10;;;12.20;;
52414;SDS011;38340;52.964;6.086;2023-06-24T06:30:14;14.55;;;12.15;;
52414;SDS011;38340;52.964;6.086;2023-06-24T06:32:40;14.70;;;12.02;;
52414;SDS011;38340;52.964;6.086;2023-06-24T06:35:06;18.05;;;12.50;;
52414;SDS011;38340;52.964;6.086;2023-06-24T06:37:33;15.32;;;12.18;;
52414;SDS011;38340;52.964;6.086;2023-06-24T06:39:58;15.45;;;12.45;;
52414;SDS011;38340;52.964;6.086;2023-06-24T06:42:24;15.60;;;11.68;;
52414;SDS011;38340;52.964;6.086;2023-06-24T06:44:50;14.30;;;10.93;;
52414;SDS011;38340;52.964;6.086;2023-06-24T06:47:15;12.95;;;11.23;;
52414;SDS011;38340;52.964;6.086;2023-06-24T06:49:41;13.20;;;11.80;;
52414;SDS011;38340;52.964;6.086;2023-06-24T06:52:07;13.18;;;10.15;;
52414;SDS011;38340;52.964;6.086;2023-06-24T06:54:33;12.85;;;10.15;;
52414;SDS011;38340;52.964;6.086;2023-06-24T06:57:02;13.35;;;9.27;;
52414;SDS011;38340;52.964;6.086;2023-06-24T06:59:29;14.80;;;9.45;;
52414;SDS011;38340;52.964;6.086;2023-06-24T07:01:55;11.07;;;8.80;;
52414;SDS011;38340;52.964;6.086;2023-06-24T07:04:21;9.52;;;7.50;;
52414;SDS011;38340;52.964;6.086;2023-06-24T07:06:47;8.40;;;7.43;;
52414;SDS011;38340;52.964;6.086;2023-06-24T07:09:13;9.75;;;6.82;;
52414;SDS011;38340;52.964;6.086;2023-06-24T07:11:40;9.52;;;6.63;;
52414;SDS011;38340;52.964;6.086;2023-06-24T07:14:06;7.70;;;6.45;;
52414;SDS011;38340;52.964;6.086;2023-06-24T07:16:32;11.30;;;6.43;;
52414;SDS011;38340;52.964;6.086;2023-06-24T07:18:58;8.88;;;5.82;;
52414;SDS011;38340;52.964;6.086;2023-06-24T07:21:23;6.25;;;5.35;;
52414;SDS011;38340;52.964;6.086;2023-06-24T07:23:49;7.07;;;5.70;;
52414;SDS011;38340;52.964;6.086;2023-06-24T07:26:14;6.85;;;5.43;;
52414;SDS011;38340;52.964;6.086;2023-06-24T07:28:40;6.68;;;5.60;;
52414;SDS011;38340;52.964;6.086;2023-06-24T07:31:06;7.80;;;5.97;;
52414;SDS011;38340;52.964;6.086;2023-06-24T07:33:32;6.95;;;6.22;;
52414;SDS011;38340;52.964;6.086;2023-06-24T07:35:58;8.18;;;5.88;;
52414;SDS011;38340;52.964;6.086;2023-06-24T07:38:23;6.20;;;5.60;;
52414;SDS011;38340;52.964;6.086;2023-06-24T07:40:49;5.75;;;5.15;;
52414;SDS011;38340;52.964;6.086;2023-06-24T07:43:14;5.80;;;5.20;;
52414;SDS011;38340;52.964;6.086;2023-06-24T07:45:40;7.00;;;5.72;;
52414;SDS011;38340;52.964;6.086;2023-06-24T07:48:06;8.80;;;6.30;;
52414;SDS011;38340;52.964;6.086;2023-06-24T07:50:35;9.32;;;6.55;;
52414;SDS011;38340;52.964;6.086;2023-06-24T07:53:01;9.70;;;6.32;;
52414;SDS011;38340;52.964;6.086;2023-06-24T07:55:27;8.35;;;6.82;;
52414;SDS011;38340;52.964;6.086;2023-06-24T07:57:53;9.15;;;6.18;;
52414;SDS011;38340;52.964;6.086;2023-06-24T08:00:19;9.60;;;6.78;;
52414;SDS011;38340;52.964;6.086;2023-06-24T08:02:45;8.63;;;6.53;;
52414;SDS011;38340;52.964;6.086;2023-06-24T08:05:10;9.98;;;7.55;;
52414;SDS011;38340;52.964;6.086;2023-06-24T08:07:37;8.48;;;6.72;;
52414;SDS011;38340;52.964;6.086;2023-06-24T08:10:03;8.07;;;6.75;;
52414;SDS011;38340;52.964;6.086;2023-06-24T08:12:29;10.57;;;6.80;;
52414;SDS011;38340;52.964;6.086;2023-06-24T08:14:55;9.02;;;6.97;;
52414;SDS011;38340;52.964;6.086;2023-06-24T08:17:21;9.48;;;7.38;;
52414;SDS011;38340;52.964;6.086;2023-06-24T08:19:48;8.95;;;7.15;;
52414;SDS011;38340;52.964;6.086;2023-06-24T08:22:14;7.97;;;6.70;;
52414;SDS011;38340;52.964;6.086;2023-06-24T08:24:39;10.38;;;8.20;;
52414;SDS011;38340;52.964;6.086;2023-06-24T08:27:05;9.80;;;6.70;;
52414;SDS011;38340;52.964;6.086;2023-06-24T08:29:31;8.77;;;7.20;;
52414;SDS011;38340;52.964;6.086;2023-06-24T08:31:56;8.68;;;7.03;;
52414;SDS011;38340;52.964;6.086;2023-06-24T08:34:22;8.85;;;6.53;;
52414;SDS011;38340;52.964;6.086;2023-06-24T08:36:48;10.73;;;8.20;;
52414;SDS011;38340;52.964;6.086;2023-06-24T08:39:13;10.15;;;7.68;;
52414;SDS011;38340;52.964;6.086;2023-06-24T08:41:39;10.48;;;6.68;;
52414;SDS011;38340;52.964;6.086;2023-06-24T08:44:05;10.27;;;7.80;;
52414;SDS011;38340;52.964;6.086;2023-06-24T08:46:31;8.98;;;7.47;;
52414;SDS011;38340;52.964;6.086;2023-06-24T08:48:59;8.52;;;7.07;;
52414;SDS011;38340;52.964;6.086;2023-06-24T08:51:33;11.32;;;7.72;;
52414;SDS011;38340;52.964;6.086;2023-06-24T08:54:03;9.27;;;7.68;;
52414;SDS011;38340;52.964;6.086;2023-06-24T08:56:34;9.32;;;7.30;;
52414;SDS011;38340;52.964;6.086;2023-06-24T08:59:00;9.02;;;6.70;;
52414;SDS011;38340;52.964;6.086;2023-06-24T09:01:26;9.80;;;8.80;;
52414;SDS011;38340;52.964;6.086;2023-06-24T09:03:52;11.88;;;7.80;;
52414;SDS011;38340;52.964;6.086;2023-06-24T09:06:18;8.77;;;7.80;;
52414;SDS011;38340;52.964;6.086;2023-06-24T09:09:02;10.10;;;7.50;;
52414;SDS011;38340;52.964;6.086;2023-06-24T09:11:28;10.00;;;7.50;;
52414;SDS011;38340;52.964;6.086;2023-06-24T09:13:54;9.55;;;8.20;;
52414;SDS011;38340;52.964;6.086;2023-06-24T09:16:21;14.07;;;7.88;;
52414;SDS011;38340;52.964;6.086;2023-06-24T09:18:48;8.95;;;7.47;;
52414;SDS011;38340;52.964;6.086;2023-06-24T09:21:21;10.95;;;7.75;;
52414;SDS011;38340;52.964;6.086;2023-06-24T09:23:51;9.20;;;7.22;;
52414;SDS011;38340;52.964;6.086;2023-06-24T09:26:18;7.80;;;7.00;;
52414;SDS011;38340;52.964;6.086;2023-06-24T09:28:47;9.48;;;7.50;;
52414;SDS011;38340;52.964;6.086;2023-06-24T09:31:14;10.68;;;6.78;;
52414;SDS011;38340;52.964;6.086;2023-06-24T09:33:40;9.88;;;7.13;;
52414;SDS011;38340;52.964;6.086;2023-06-24T09:36:06;8.88;;;7.00;;
52414;SDS011;38340;52.964;6.086;2023-06-24T09:38:32;10.00;;;6.90;;
52414;SDS011;38340;52.964;6.086;2023-06-24T09:41:02;8.15;;;6.97;;
52414;SDS011;38340;52.964;6.086;2023-06-24T09:43:34;9.10;;;6.75;;
52414;SDS011;38340;52.964;6.086;2023-06-24T09:46:10;10.00;;;6.85;;
52414;SDS011;38340;52.964;6.086;2023-06-24T09:48:36;9.00;;;7.25;;
52414;SDS011;38340;52.964;6.086;2023-06-24T09:51:02;7.25;;;6.53;;
52414;SDS011;38340;52.964;6.086;2023-06-24T09:53:32;10.60;;;6.90;;
52414;SDS011;38340;52.964;6.086;2023-06-24T09:56:00;8.85;;;6.40;;
52414;SDS011;38340;52.964;6.086;2023-06-24T09:58:31;7.95;;;6.50;;
52414;SDS011;38340;52.964;6.086;2023-06-24T10:01:04;8.13;;;6.32;;
52414;SDS011;38340;52.964;6.086;2023-06-24T10:03:31;8.98;;;6.90;;
52414;SDS011;38340;52.964;6.086;2023-06-24T10:06:00;7.07;;;6.38;;
52414;SDS011;38340;52.964;6.086;2023-06-24T10:08:27;7.80;;;6.22;;
52414;SDS011;38340;52.964;6.086;2023-06-24T10:10:55;8.68;;;5.85;;
52414;SDS011;38340;52.964;6.086;2023-06-24T10:13:20;9.25;;;6.68;;
52414;SDS011;38340;52.964;6.086;2023-06-24T10:15:46;9.98;;;6.72;;
52414;SDS011;38340;52.964;6.086;2023-06-24T10:21:02;8.05;;;6.28;;
52414;SDS011;38340;52.964;6.086;2023-06-24T10:24:14;11.32;;;6.78;;
52414;SDS011;38340;52.964;6.086;2023-06-24T10:26:36;7.20;;;6.05;;
52414;SDS011;38340;52.964;6.086;2023-06-24T10:36:58;7.15;;;6.45;;
52414;SDS011;38340;52.964;6.086;2023-06-24T10:45:13;7.00;;;6.30;;
52414;SDS011;38340;52.964;6.086;2023-06-24T10:47:59;7.75;;;5.60;;
52414;SDS011;38340;52.964;6.086;2023-06-24T10:50:25;7.55;;;5.40;;
52414;SDS011;38340;52.964;6.086;2023-06-24T10:52:52;6.88;;;5.70;;
52414;SDS011;38340;52.964;6.086;2023-06-24T10:55:23;8.38;;;5.50;;
52414;SDS011;38340;52.964;6.086;2023-06-24T10:57:52;7.78;;;5.30;;
52414;SDS011;38340;52.964;6.086;2023-06-24T11:00:19;9.55;;;5.88;;
52414;SDS011;38340;52.964;6.086;2023-06-24T11:02:46;8.18;;;5.63;;
52414;SDS011;38340;52.964;6.086;2023-06-24T11:05:11;7.25;;;5.18;;
52414;SDS011;38340;52.964;6.086;2023-06-24T11:07:37;6.95;;;5.72;;
52414;SDS011;38340;52.964;6.086;2023-06-24T11:10:07;5.75;;;5.18;;
52414;SDS011;38340;52.964;6.086;2023-06-24T11:12:36;6.50;;;5.00;;
52414;SDS011;38340;52.964;6.086;2023-06-24T11:15:03;6.88;;;4.97;;
52414;SDS011;38340;52.964;6.086;2023-06-24T11:17:33;8.13;;;5.60;;
52414;SDS011;38340;52.964;6.086;2023-06-24T11:20:00;6.60;;;5.07;;
52414;SDS011;38340;52.964;6.086;2023-06-24T11:22:27;6.22;;;5.63;;
52414;SDS011;38340;52.964;6.086;2023-06-24T11:24:53;6.25;;;5.65;;
52414;SDS011;38340;52.964;6.086;2023-06-24T11:27:24;5.30;;;4.80;;
52414;SDS011;38340;52.964;6.086;2023-06-24T11:29:53;5.55;;;4.97;;
52414;SDS011;38340;52.964;6.086;2023-06-24T11:32:21;6.65;;;5.00;;
52414;SDS011;38340;52.964;6.086;2023-06-24T11:34:47;5.38;;;4.88;;
52414;SDS011;38340;52.964;6.086;2023-06-24T11:37:14;5.30;;;4.80;;
52414;SDS011;38340;52.964;6.086;2023-06-24T11:39:42;6.05;;;4.57;;
52414;SDS011;38340;52.964;6.086;2023-06-24T11:42:08;6.85;;;4.63;;
52414;SDS011;38340;52.964;6.086;2023-06-24T11:44:35;5.10;;;4.60;;
52414;SDS011;38340;52.964;6.086;2023-06-24T11:47:05;4.80;;;4.38;;
52414;SDS011;38340;52.964;6.086;2023-06-24T11:49:31;8.15;;;4.60;;
52414;SDS011;38340;52.964;6.086;2023-06-24T11:51:57;7.03;;;4.72;;
52414;SDS011;38340;52.964;6.086;2023-06-24T11:54:23;8.63;;;4.68;;
52414;SDS011;38340;52.964;6.086;2023-06-24T11:56:52;5.30;;;4.38;;
52414;SDS011;38340;52.964;6.086;2023-06-24T11:59:22;5.35;;;4.50;;
52414;SDS011;38340;52.964;6.086;2023-06-24T12:01:54;6.65;;;5.05;;
52414;SDS011;38340;52.964;6.086;2023-06-24T12:04:26;5.43;;;4.75;;
52414;SDS011;38340;52.964;6.086;2023-06-24T12:06:53;6.68;;;5.13;;
52414;SDS011;38340;52.964;6.086;2023-06-24T12:09:19;5.40;;;4.75;;
52414;SDS011;38340;52.964;6.086;2023-06-24T12:11:45;6.80;;;4.90;;
52414;SDS011;38340;52.964;6.086;2023-06-24T12:14:11;5.75;;;4.60;;
52414;SDS011;38340;52.964;6.086;2023-06-24T12:16:38;6.05;;;5.45;;
52414;SDS011;38340;52.964;6.086;2023-06-24T12:19:04;6.97;;;5.15;;
52414;SDS011;38340;52.964;6.086;2023-06-24T12:21:33;6.70;;;6.00;;
52414;SDS011;38340;52.964;6.086;2023-06-24T12:24:00;6.60;;;5.80;;
52414;SDS011;38340;52.964;6.086;2023-06-24T12:26:29;8.02;;;5.13;;
52414;SDS011;38340;52.964;6.086;2023-06-24T12:28:56;6.20;;;5.03;;
52414;SDS011;38340;52.964;6.086;2023-06-24T12:31:23;10.75;;;6.13;;
52414;SDS011;38340;52.964;6.086;2023-06-24T12:33:49;6.10;;;5.07;;
52414;SDS011;38340;52.964;6.086;2023-06-24T12:36:16;10.68;;;5.63;;
52414;SDS011;38340;52.964;6.086;2023-06-24T12:38:42;5.30;;;4.63;;
52414;SDS011;38340;52.964;6.086;2023-06-24T12:41:07;5.90;;;5.00;;
52414;SDS011;38340;52.964;6.086;2023-06-24T12:43:33;5.80;;;5.20;;
52414;SDS011;38340;52.964;6.086;2023-06-24T12:45:59;9.48;;;5.95;;
52414;SDS011;38340;52.964;6.086;2023-06-24T12:48:24;6.55;;;5.35;;
52414;SDS011;38340;52.964;6.086;2023-06-24T12:50:51;6.43;;;5.07;;
52414;SDS011;38340;52.964;6.086;2023-06-24T12:53:20;6.63;;;5.63;;
52414;SDS011;38340;52.964;6.086;2023-06-24T12:55:47;6.13;;;5.45;;
52414;SDS011;38340;52.964;6.086;2023-06-24T12:58:13;9.13;;;5.68;;
52414;SDS011;38340;52.964;6.086;2023-06-24T13:00:40;5.82;;;5.05;;
52414;SDS011;38340;52.964;6.086;2023-06-24T13:03:05;8.85;;;5.88;;
52414;SDS011;38340;52.964;6.086;2023-06-24T13:05:31;6.85;;;5.75;;
52414;SDS011;38340;52.964;6.086;2023-06-24T13:07:57;6.72;;;6.03;;
52414;SDS011;38340;52.964;6.086;2023-06-24T13:10:23;7.28;;;5.82;;
52414;SDS011;38340;52.964;6.086;2023-06-24T13:12:48;9.40;;;6.72;;
52414;SDS011;38340;52.964;6.086;2023-06-24T13:15:14;6.75;;;5.80;;
52414;SDS011;38340;52.964;6.086;2023-06-24T13:17:40;8.68;;;6.68;;
52414;SDS011;38340;52.964;6.086;2023-06-24T13:20:07;9.02;;;6.40;;
52414;SDS011;38340;52.964;6.086;2023-06-24T13:22:33;10.25;;;6.53;;
52414;SDS011;38340;52.964;6.086;2023-06-24T13:24:58;8.38;;;6.47;;
52414;SDS011;38340;52.964;6.086;2023-06-24T13:27:25;8.48;;;6.50;;
52414;SDS011;38340;52.964;6.086;2023-06-24T13:29:50;7.72;;;6.60;;
52414;SDS011;38340;52.964;6.086;2023-06-24T13:32:16;8.30;;;7.07;;
52414;SDS011;38340;52.964;6.086;2023-06-24T13:34:41;7.68;;;5.93;;
52414;SDS011;38340;52.964;6.086;2023-06-24T13:37:07;11.45;;;6.55;;
52414;SDS011;38340;52.964;6.086;2023-06-24T13:39:33;10.00;;;5.97;;
52414;SDS011;38340;52.964;6.086;2023-06-24T13:41:59;10.05;;;6.43;;
52414;SDS011;38340;52.964;6.086;2023-06-24T13:44:25;7.88;;;5.70;;
52414;SDS011;38340;52.964;6.086;2023-06-24T13:46:51;7.20;;;5.70;;
52414;SDS011;38340;52.964;6.086;2023-06-24T13:49:18;9.43;;;5.68;;
52414;SDS011;38340;52.964;6.086;2023-06-24T13:51:44;7.00;;;5.57;;
52414;SDS011;38340;52.964;6.086;2023-06-24T13:54:10;6.30;;;5.53;;
52414;SDS011;38340;52.964;6.086;2023-06-24T13:56:35;11.20;;;5.85;;
52414;SDS011;38340;52.964;6.086;2023-06-24T13:59:02;6.43;;;5.82;;
52414;SDS011;38340;52.964;6.086;2023-06-24T14:01:27;6.32;;;5.57;;
52414;SDS011;38340;52.964;6.086;2023-06-24T14:03:54;8.80;;;5.70;;
52414;SDS011;38340;52.964;6.086;2023-06-24T14:06:21;6.82;;;5.60;;
52414;SDS011;38340;52.964;6.086;2023-06-24T14:08:48;9.85;;;6.18;;
52414;SDS011;38340;52.964;6.086;2023-06-24T14:11:15;18.95;;;8.02;;
52414;SDS011;38340;52.964;6.086;2023-06-24T14:13:41;10.80;;;6.88;;
52414;SDS011;38340;52.964;6.086;2023-06-24T14:16:08;7.95;;;6.03;;
52414;SDS011;38340;52.964;6.086;2023-06-24T14:18:35;7.88;;;6.50;;
52414;SDS011;38340;52.964;6.086;2023-06-24T14:21:02;9.15;;;5.85;;
52414;SDS011;38340;52.964;6.086;2023-06-24T14:23:29;9.05;;;5.75;;
52414;SDS011;38340;52.964;6.086;2023-06-24T14:25:55;14.05;;;6.22;;
52414;SDS011;38340;52.964;6.086;2023-06-24T14:28:21;13.98;;;12.55;;
52414;SDS011;38340;52.964;6.086;2023-06-24T14:30:47;6.85;;;5.65;;
52414;SDS011;38340;52.964;6.086;2023-06-24T14:33:13;8.50;;;5.88;;
52414;SDS011;38340;52.964;6.086;2023-06-24T14:35:40;7.25;;;5.72;;
52414;SDS011;38340;52.964;6.086;2023-06-24T14:38:06;8.40;;;6.18;;
52414;SDS011;38340;52.964;6.086;2023-06-24T14:40:32;7.55;;;5.47;;
52414;SDS011;38340;52.964;6.086;2023-06-24T14:42:58;6.10;;;5.40;;
52414;SDS011;38340;52.964;6.086;2023-06-24T14:45:24;5.97;;;4.95;;
52414;SDS011;38340;52.964;6.086;2023-06-24T14:47:50;6.72;;;5.22;;
52414;SDS011;38340;52.964;6.086;2023-06-24T14:50:16;5.78;;;5.03;;
52414;SDS011;38340;52.964;6.086;2023-06-24T14:52:42;6.88;;;5.78;;
52414;SDS011;38340;52.964;6.086;2023-06-24T14:55:08;5.40;;;4.75;;
52414;SDS011;38340;52.964;6.086;2023-06-24T14:57:34;6.90;;;4.60;;
52414;SDS011;38340;52.964;6.086;2023-06-24T15:00:01;5.70;;;5.10;;
52414;SDS011;38340;52.964;6.086;2023-06-24T15:02:28;8.02;;;4.95;;
52414;SDS011;38340;52.964;6.086;2023-06-24T15:04:53;6.50;;;5.00;;
52414;SDS011;38340;52.964;6.086;2023-06-24T15:07:19;5.68;;;5.07;;